createdAt,value
2022-09-17T00:02:01.494Z,99248.16
2022-09-17T00:04:34.210Z,99273.04
2022-09-17T00:07:06.244Z,99269.27
2022-09-17T00:09:38.237Z,99271.41
2022-09-17T00:12:10.506Z,99269.65
2022-09-17T00:14:42.917Z,99269.20
2022-09-17T00:17:14.905Z,99263.19
2022-09-17T00:19:47.191Z,99261.44
2022-09-17T00:22:19.502Z,99259.69
2022-09-17T00:24:51.612Z,99257.10
2022-09-17T00:27:23.660Z,99250.93
2022-09-17T00:29:55.531Z,99253.79
2022-09-17T00:32:27.942Z,99252.39
2022-09-17T00:34:59.894Z,99251.73
2022-09-17T00:37:31.941Z,99258.97
2022-09-17T00:40:04.173Z,99261.96
2022-09-17T00:42:36.277Z,99258.45
2022-09-17T00:45:10.695Z,99255.07
2022-09-17T00:47:46.821Z,99253.55
2022-09-17T00:50:23.016Z,99257.17
2022-09-17T00:52:58.673Z,99261.67
2022-09-17T00:55:34.753Z,99263.86
2022-09-17T00:58:10.862Z,99267.98
2022-09-17T01:00:43.702Z,99266.13
2022-09-17T01:03:15.903Z,99252.41
2022-09-17T01:05:57.585Z,99263.59
2022-09-17T01:08:39.095Z,99262.00
2022-09-17T01:11:37.455Z,99264.95
2022-09-17T01:14:23.231Z,99263.13
2022-09-17T01:17:01.780Z,99255.48
2022-09-17T01:20:06.104Z,99258.27
2022-09-17T01:22:47.780Z,99255.56
2022-09-17T01:25:31.376Z,99260.16
2022-09-17T01:28:32.852Z,99263.92
2022-09-17T01:31:18.521Z,99254.10
2022-09-17T01:34:01.529Z,99252.95
2022-09-17T01:36:48.609Z,99245.23
2022-09-17T01:39:33.060Z,99244.91
2022-09-17T01:42:16.903Z,99243.71
2022-09-17T01:44:57.632Z,99246.91
2022-09-17T01:47:36.805Z,99244.20
2022-09-17T01:50:13.858Z,99246.07
2022-09-17T01:52:49.143Z,99248.66
2022-09-17T01:55:24.896Z,99253.09
2022-09-17T01:58:02.029Z,99254.52
2022-09-17T02:00:34.652Z,99258.67
2022-09-17T02:03:11.873Z,99257.61
2022-09-17T02:05:46.936Z,99262.20
2022-09-17T02:08:23.554Z,99256.70
2022-09-17T02:11:04.681Z,99254.59
2022-09-17T02:13:42.532Z,99250.09
2022-09-17T02:16:19.146Z,99255.37
2022-09-17T02:18:56.284Z,99254.59
2022-09-17T02:21:37.056Z,99253.64
2022-09-17T02:24:18.544Z,99241.36
2022-09-17T02:26:57.754Z,99236.23
2022-09-17T02:29:35.961Z,99250.90
2022-09-17T02:32:08.449Z,99252.92
2022-09-17T02:34:41.387Z,99255.64
2022-09-17T02:37:14.216Z,99257.84
2022-09-17T02:39:49.320Z,99257.34
2022-09-17T02:42:30.326Z,99251.88
2022-09-17T02:45:08.507Z,99251.79
2022-09-17T02:47:54.220Z,99248.55
2022-09-17T02:50:37.117Z,99246.86
2022-09-17T02:53:28.710Z,99249.55
2022-09-17T02:56:10.276Z,99246.94
2022-09-17T02:58:51.264Z,99232.61
2022-09-17T03:01:29.531Z,99230.86
2022-09-17T03:04:04.425Z,99239.73
2022-09-17T03:06:36.483Z,99239.69
2022-09-17T03:09:08.509Z,99240.73
2022-09-17T03:11:40.824Z,99244.40
2022-09-17T03:14:12.704Z,99244.91
2022-09-17T03:16:44.699Z,99240.09
2022-09-17T03:19:16.712Z,99240.99
2022-09-17T03:21:49.975Z,99243.62
2022-09-17T03:24:21.996Z,99246.83
2022-09-17T03:26:54.125Z,99243.45
2022-09-17T03:29:26.217Z,99246.95
2022-09-17T03:31:58.242Z,99244.54
2022-09-17T03:34:30.124Z,99249.39
2022-09-17T03:37:02.654Z,99235.00
2022-09-17T03:39:35.327Z,99256.44
2022-09-17T03:42:08.270Z,99255.36
2022-09-17T03:44:44.709Z,99261.05
2022-09-17T03:47:17.955Z,99261.57
2022-09-17T03:49:50.214Z,99264.74
2022-09-17T03:52:22.579Z,99272.31
2022-09-17T03:54:54.588Z,99271.16
2022-09-17T03:57:26.979Z,99274.02
2022-09-17T03:59:59.085Z,99273.70
2022-09-17T04:02:31.269Z,99274.65
2022-09-17T04:05:03.362Z,99280.84
2022-09-17T04:07:35.294Z,99266.91
2022-09-17T04:10:08.534Z,99280.95
2022-09-17T04:12:41.143Z,99277.46
2022-09-17T04:15:14.055Z,99277.60
2022-09-17T04:17:46.223Z,99279.77
2022-09-17T04:20:18.701Z,99278.52
2022-09-17T04:22:51.246Z,99276.94
2022-09-17T04:25:23.878Z,99284.06
2022-09-17T04:27:56.240Z,99284.11
2022-09-17T04:30:28.351Z,99283.77
2022-09-17T04:33:00.335Z,99285.55
2022-09-17T04:35:32.681Z,99273.21
2022-09-17T04:38:05.248Z,99283.16
2022-09-17T04:40:37.276Z,99282.94
2022-09-17T04:43:10.698Z,99291.05
2022-09-17T04:45:42.774Z,99293.05
2022-09-17T04:48:14.935Z,99294.17
2022-09-17T04:50:47.163Z,99297.17
2022-09-17T04:53:20.398Z,99302.16
2022-09-17T04:55:52.683Z,99301.05
2022-09-17T04:58:24.798Z,99314.78
2022-09-17T05:00:56.860Z,99316.58
2022-09-17T05:03:29.259Z,99313.48
2022-09-17T05:06:01.241Z,99320.11
2022-09-17T05:08:35.791Z,99322.39
2022-09-17T05:11:08.047Z,99325.81
2022-09-17T05:13:40.365Z,99325.16
2022-09-17T05:16:12.479Z,99326.02
2022-09-17T05:18:44.702Z,99331.03
2022-09-17T05:21:16.852Z,99335.34
2022-09-17T05:23:49.590Z,99336.77
2022-09-17T05:26:22.426Z,99343.23
2022-09-17T05:28:54.689Z,99343.63
2022-09-17T05:31:27.184Z,99352.49
2022-09-17T05:34:00.344Z,99356.25
2022-09-17T05:36:32.315Z,99362.88
2022-09-17T05:39:04.468Z,99362.30
2022-09-17T05:41:36.631Z,99362.70
2022-09-17T05:44:09.027Z,99369.20
2022-09-17T05:46:41.540Z,99370.30
2022-09-17T05:49:14.371Z,99364.86
2022-09-17T05:51:46.566Z,99364.56
2022-09-17T05:54:19.228Z,99361.23
2022-09-17T05:56:53.658Z,99365.50
2022-09-17T05:59:25.914Z,99362.15
2022-09-17T06:01:58.049Z,99368.08
2022-09-17T06:04:34.112Z,99361.44
2022-09-17T06:07:09.356Z,99361.20
2022-09-17T06:09:41.727Z,99365.16
2022-09-17T06:12:13.919Z,99361.27
2022-09-17T06:14:46.452Z,99359.27
2022-09-17T06:17:22.091Z,99355.63
2022-09-17T06:19:54.376Z,99360.86
2022-09-17T06:22:26.543Z,99361.06
2022-09-17T06:24:59.871Z,99370.44
2022-09-17T06:27:34.696Z,99374.79
2022-09-17T06:30:08.130Z,99379.92
2022-09-17T06:32:40.255Z,99382.20
2022-09-17T06:35:12.648Z,99386.23
2022-09-17T06:37:44.684Z,99387.10
2022-09-17T06:40:17.795Z,99395.11
2022-09-17T06:42:50.178Z,99390.42
2022-09-17T06:45:22.321Z,99389.39
2022-09-17T06:47:54.614Z,99391.18
2022-09-17T06:50:27.084Z,99394.73
2022-09-17T06:52:59.151Z,99396.64
2022-09-17T06:55:31.744Z,99394.54
2022-09-17T06:58:03.842Z,99389.27
2022-09-17T07:00:36.610Z,99392.77
2022-09-17T07:03:10.248Z,99395.85
2022-09-17T07:05:44.536Z,99389.77
2022-09-17T07:08:16.462Z,99390.38
2022-09-17T07:10:48.940Z,99389.91
2022-09-17T07:13:20.881Z,99389.98
2022-09-17T07:16:00.539Z,99391.66
2022-09-17T07:18:34.280Z,99395.23
2022-09-17T07:21:08.166Z,99391.84
2022-09-17T07:23:41.171Z,99392.29
2022-09-17T07:26:16.713Z,99382.41
2022-09-17T07:28:48.956Z,99381.66
2022-09-17T07:31:21.267Z,99380.11
2022-09-17T07:33:53.374Z,99378.55
2022-09-17T07:36:25.475Z,99380.26
2022-09-17T07:38:57.584Z,99385.70
2022-09-17T07:41:29.707Z,99385.73
2022-09-17T07:44:02.858Z,99386.26
2022-09-17T07:46:35.336Z,99385.31
2022-09-17T07:49:07.697Z,99387.13
2022-09-17T07:51:40.588Z,99385.33
2022-09-17T07:54:13.374Z,99388.43
2022-09-17T07:56:46.370Z,99389.98
2022-09-17T07:59:18.278Z,99392.79
2022-09-17T08:01:51.084Z,99393.13
2022-09-17T08:04:23.869Z,99396.02
2022-09-17T08:06:55.957Z,99399.18
2022-09-17T08:09:27.972Z,99402.80
2022-09-17T08:11:59.979Z,99401.13
2022-09-17T08:14:32.328Z,99398.33
2022-09-17T08:17:04.462Z,99396.55
2022-09-17T08:19:36.934Z,99395.58
2022-09-17T08:22:09.138Z,99395.34
2022-09-17T08:24:42.579Z,99397.45
2022-09-17T08:27:15.108Z,99397.30
2022-09-17T08:29:47.393Z,99397.60
2022-09-17T08:32:19.651Z,99407.67
2022-09-17T08:34:57.978Z,99402.70
2022-09-17T08:37:30.941Z,99406.33
2022-09-17T08:40:03.384Z,99401.81
2022-09-17T08:42:42.829Z,99391.15
2022-09-17T08:45:19.105Z,99400.41
2022-09-17T08:47:51.862Z,99403.85
2022-09-17T08:50:32.740Z,99399.77
2022-09-17T08:53:26.248Z,99397.62
2022-09-17T08:56:03.569Z,99400.00
2022-09-17T08:58:58.721Z,99406.79
2022-09-17T09:01:42.169Z,99410.23
2022-09-17T09:04:46.448Z,99416.39
2022-09-17T09:07:22.947Z,99400.00
2022-09-17T09:10:06.200Z,99410.33
2022-09-17T09:12:40.752Z,99411.01
2022-09-17T09:15:24.945Z,99397.99
2022-09-17T09:17:59.851Z,99415.50
2022-09-17T09:20:41.153Z,99418.95
2022-09-17T09:23:18.919Z,99421.84
2022-09-17T09:25:56.813Z,99424.18
2022-09-17T09:29:02.530Z,99420.73
2022-09-17T09:31:42.893Z,99431.11
2022-09-17T09:34:16.841Z,99440.10
2022-09-17T09:36:50.522Z,99439.46
2022-09-17T09:39:27.052Z,99439.33
2022-09-17T09:42:05.891Z,99433.87
2022-09-17T09:44:38.936Z,99447.62
2022-09-17T09:47:42.894Z,99451.48
2022-09-17T09:51:05.359Z,99443.88
2022-09-17T09:53:51.589Z,99444.36
2022-09-17T09:56:39.867Z,99446.47
2022-09-17T09:59:14.020Z,99446.45
2022-09-17T10:01:46.445Z,99445.32
2022-09-17T10:04:22.051Z,99446.45
2022-09-17T10:06:56.963Z,99442.02
2022-09-17T10:09:30.140Z,99435.79
2022-09-17T10:12:16.560Z,99433.02
2022-09-17T10:14:49.106Z,99427.98
2022-09-17T10:17:24.027Z,99439.44
2022-09-17T10:20:22.898Z,99446.80
2022-09-17T10:22:55.603Z,99443.70
2022-09-17T10:25:31.911Z,99449.68
2022-09-17T10:28:07.119Z,99445.27
2022-09-17T10:30:39.636Z,99454.05
2022-09-17T10:33:20.900Z,99445.85
2022-09-17T10:36:06.435Z,99459.31
2022-09-17T10:38:40.931Z,99459.81
2022-09-17T10:41:21.993Z,99466.89
2022-09-17T10:43:55.341Z,99470.28
2022-09-17T10:46:33.948Z,99468.14
2022-09-17T10:49:21.111Z,99462.55
2022-09-17T10:51:53.603Z,99462.30
2022-09-17T10:54:44.613Z,99464.02
2022-09-17T10:57:28.400Z,99469.39
2022-09-17T11:00:19.212Z,99472.52
2022-09-17T11:03:34.099Z,99458.46
2022-09-17T11:06:22.007Z,99464.38
2022-09-17T11:09:05.445Z,99461.84
2022-09-17T11:11:48.075Z,99466.70
2022-09-17T11:14:38.243Z,99463.67
2022-09-17T11:17:23.801Z,99459.29
2022-09-17T11:20:04.478Z,99461.83
2022-09-17T11:22:49.398Z,99459.48
2022-09-17T11:25:40.018Z,99456.27
2022-09-17T11:28:27.022Z,99452.20
2022-09-17T11:31:14.439Z,99448.23
2022-09-17T11:34:04.212Z,99444.84
2022-09-17T11:36:47.498Z,99444.34
2022-09-17T11:39:27.024Z,99440.42
2022-09-17T11:42:03.488Z,99440.73
2022-09-17T11:44:42.237Z,99435.71
2022-09-17T11:47:20.403Z,99433.48
2022-09-17T11:49:57.684Z,99440.66
2022-09-17T11:52:35.667Z,99447.98
2022-09-17T11:55:19.455Z,99441.88
2022-09-17T11:58:01.592Z,99442.33
2022-09-17T12:00:46.485Z,99443.92
2022-09-17T12:03:28.495Z,99441.23
2022-09-17T12:09:59.380Z,99441.29
2022-09-17T12:12:50.291Z,99438.63
2022-09-17T12:15:53.608Z,99433.20
2022-09-17T12:18:41.558Z,99433.94
2022-09-17T12:21:21.919Z,99432.17
2022-09-17T12:24:24.143Z,99435.21
2022-09-17T12:27:17.141Z,99426.10
2022-09-17T12:30:12.534Z,99420.18
2022-09-17T12:33:01.028Z,99414.36
2022-09-17T12:36:05.230Z,99406.84
2022-09-17T12:39:26.938Z,99400.13
2022-09-17T12:42:14.482Z,99395.91
2022-09-17T12:45:09.900Z,99395.52
2022-09-17T12:48:04.448Z,99393.68
2022-09-17T12:50:56.603Z,99399.70
2022-09-17T12:53:39.311Z,99396.55
2022-09-17T12:56:31.857Z,99396.23
2022-09-17T12:59:13.383Z,99392.83
2022-09-17T13:01:57.188Z,99399.13
2022-09-17T13:05:01.121Z,99405.72
2022-09-17T13:08:03.115Z,99407.25
2022-09-17T13:10:50.195Z,99412.48
2022-09-17T13:13:37.833Z,99431.39
2022-09-17T13:16:20.016Z,99441.44
2022-09-17T13:19:17.621Z,99424.50
2022-09-17T13:21:55.720Z,99438.26
2022-09-17T13:24:31.411Z,99437.87
2022-09-17T13:27:06.105Z,99434.73
2022-09-17T13:30:02.046Z,99434.65
2022-09-17T13:32:48.208Z,99432.55
2022-09-17T13:35:51.025Z,99434.59
2022-09-17T13:38:24.869Z,99430.74
2022-09-17T13:41:21.867Z,99429.21
2022-09-17T13:43:56.114Z,99428.05
2022-09-17T13:46:32.778Z,99423.29
2022-09-17T13:49:07.517Z,99419.67
2022-09-17T13:51:49.649Z,99413.55
2022-09-17T13:54:36.635Z,99405.41
2022-09-17T13:57:16.145Z,99404.23
2022-09-17T14:00:00.876Z,99392.92
2022-09-17T14:02:38.236Z,99388.02
2022-09-17T14:05:38.013Z,99390.98
2022-09-17T14:08:29.291Z,99390.09
2022-09-17T14:11:24.192Z,99385.80
2022-09-17T14:13:59.077Z,99383.27
2022-09-17T14:16:52.327Z,99374.09
2022-09-17T14:19:32.540Z,99370.98
2022-09-17T14:22:14.518Z,99369.16
2022-09-17T14:24:55.105Z,99371.29
2022-09-17T14:27:51.515Z,99368.52
2022-09-17T14:30:25.241Z,99366.65
2022-09-17T14:33:06.609Z,99369.06
2022-09-17T14:35:42.991Z,99371.58
2022-09-17T14:38:20.826Z,99376.08
2022-09-17T14:41:00.824Z,99377.14
2022-09-17T14:43:41.075Z,99379.48
2022-09-17T14:46:20.393Z,99378.02
2022-09-17T14:48:52.969Z,99378.55
2022-09-17T14:51:30.846Z,99376.17
2022-09-17T14:54:17.926Z,99374.73
2022-09-17T14:56:59.236Z,99381.30
2022-09-17T14:59:50.999Z,99354.98
2022-09-17T15:02:31.279Z,99380.44
2022-09-17T15:05:04.312Z,99384.98
2022-09-17T15:07:36.378Z,99386.98
2022-09-17T15:10:17.882Z,99384.32
2022-09-17T15:12:51.553Z,99386.79
2022-09-17T15:15:27.392Z,99390.14
2022-09-17T15:18:01.005Z,99392.55
2022-09-17T15:20:33.807Z,99395.67
2022-09-17T15:23:16.322Z,99394.14
2022-09-17T15:25:53.802Z,99393.72
2022-09-17T15:28:32.853Z,99378.13
2022-09-17T15:31:06.565Z,99392.89
2022-09-17T15:33:42.893Z,99393.45
2022-09-17T15:36:22.399Z,99388.75
2022-09-17T15:39:02.457Z,99380.45
2022-09-17T15:41:39.737Z,99392.55
2022-09-17T15:44:36.836Z,99398.11
2022-09-17T15:47:43.425Z,99404.01
2022-09-17T15:50:21.296Z,99403.90
2022-09-17T15:53:12.695Z,99406.15
2022-09-17T15:55:48.397Z,99399.83
2022-09-17T15:58:27.018Z,99404.86
2022-09-17T16:01:51.782Z,99400.99
2022-09-17T16:04:27.032Z,99408.21
2022-09-17T16:07:19.910Z,99411.29
2022-09-17T16:09:53.398Z,99411.29
2022-09-17T16:12:27.308Z,99410.21
2022-09-17T16:15:01.586Z,99407.68
2022-09-17T16:17:43.992Z,99405.96
2022-09-17T16:20:21.997Z,99391.08
2022-09-17T16:22:55.091Z,99401.41
2022-09-17T16:25:29.717Z,99406.06
2022-09-17T16:28:04.358Z,99413.52
2022-09-17T16:30:36.658Z,99422.66
2022-09-17T16:33:11.628Z,99426.05
2022-09-17T16:35:44.606Z,99415.73
2022-09-17T16:38:17.426Z,99438.25
2022-09-17T16:40:51.789Z,99444.59
2022-09-17T16:43:24.475Z,99447.96
2022-09-17T16:46:04.314Z,99452.23
2022-09-17T16:48:37.754Z,99442.18
2022-09-17T16:51:11.608Z,99460.55
2022-09-17T16:53:44.523Z,99463.68
2022-09-17T16:56:17.258Z,99465.32
2022-09-17T16:58:49.452Z,99460.83
2022-09-17T17:01:21.577Z,99461.10
2022-09-17T17:03:55.820Z,99460.99
2022-09-17T17:06:28.220Z,99465.52
2022-09-17T17:09:02.085Z,99467.39
2022-09-17T17:11:34.238Z,99472.10
2022-09-17T17:14:06.581Z,99476.00
2022-09-17T17:16:40.922Z,99479.00
2022-09-17T17:19:13.620Z,99482.66
2022-09-17T17:21:47.242Z,99477.34
2022-09-17T17:24:19.744Z,99477.66
2022-09-17T17:26:53.236Z,99480.55
2022-09-17T17:29:25.652Z,99484.52
2022-09-17T17:31:57.800Z,99483.86
2022-09-17T17:34:29.873Z,99485.64
2022-09-17T17:37:02.395Z,99484.56
2022-09-17T17:39:34.437Z,99489.32
2022-09-17T17:42:07.189Z,99494.08
2022-09-17T17:44:39.246Z,99494.20
2022-09-17T17:47:11.633Z,99499.15
2022-09-17T17:49:44.676Z,99504.41
2022-09-17T17:52:16.961Z,99503.64
2022-09-17T17:54:49.548Z,99502.40
2022-09-17T17:57:21.617Z,99503.01
2022-09-17T17:59:53.689Z,99504.05
2022-09-17T18:02:26.110Z,99499.63
2022-09-17T18:05:03.418Z,99498.92
2022-09-17T18:07:36.465Z,99501.67
2022-09-17T18:10:09.812Z,99497.27
2022-09-17T18:12:42.558Z,99498.30
2022-09-17T18:15:14.972Z,99499.63
2022-09-17T18:17:48.142Z,99499.75
2022-09-17T18:20:22.237Z,99497.13
2022-09-17T18:22:54.507Z,99498.45
2022-09-17T18:25:28.757Z,99498.73
2022-09-17T18:28:01.432Z,99499.40
2022-09-17T18:30:33.505Z,99499.34
2022-09-17T18:33:05.553Z,99495.95
2022-09-17T18:35:40.663Z,99497.56
2022-09-17T18:38:12.904Z,99495.00
2022-09-17T18:40:45.385Z,99497.94
2022-09-17T18:43:18.113Z,99496.96
2022-09-17T18:45:56.815Z,99498.20
2022-09-17T18:48:33.077Z,99500.86
2022-09-17T18:51:11.385Z,99498.98
2022-09-17T18:53:46.247Z,99499.63
2022-09-17T18:56:23.171Z,99491.98
2022-09-17T18:58:57.239Z,99491.05
2022-09-17T19:01:31.413Z,99496.55
2022-09-17T19:04:05.023Z,99496.68
2022-09-17T19:06:38.137Z,99493.74
2022-09-17T19:09:11.639Z,99497.96
2022-09-17T19:11:43.787Z,99490.77
2022-09-17T19:14:15.760Z,99495.60
2022-09-17T19:16:48.399Z,99491.09
2022-09-17T19:19:20.444Z,99490.98
2022-09-17T19:21:53.107Z,99496.10
2022-09-17T19:24:25.247Z,99493.45
2022-09-17T19:26:59.448Z,99499.02
2022-09-17T19:29:31.635Z,99464.83
2022-09-17T19:32:04.087Z,99500.49
2022-09-17T19:34:36.618Z,99497.85
2022-09-17T19:37:08.644Z,99496.38
2022-09-17T19:39:40.907Z,99492.52
2022-09-17T19:42:13.127Z,99492.17
2022-09-17T19:44:45.195Z,99486.80
2022-09-17T19:47:17.239Z,99487.96
2022-09-17T19:49:52.221Z,99487.30
2022-09-17T19:52:24.338Z,99482.38
2022-09-17T19:54:56.632Z,99482.02
2022-09-17T19:57:28.955Z,99481.86
2022-09-17T20:00:04.403Z,99484.94
2022-09-17T20:02:42.944Z,99488.62
2022-09-17T20:05:15.076Z,99498.25
2022-09-17T20:07:48.352Z,99501.14
2022-09-17T20:10:24.013Z,99504.39
2022-09-17T20:12:57.407Z,99503.03
2022-09-17T20:15:29.451Z,99502.70
2022-09-17T20:18:01.813Z,99486.06
2022-09-17T20:20:33.906Z,99499.71
2022-09-17T20:23:06.630Z,99503.30
2022-09-17T20:25:39.521Z,99503.50
2022-09-17T20:28:12.247Z,99505.45
2022-09-17T20:30:44.412Z,99509.61
2022-09-17T20:33:19.959Z,99515.89
2022-09-17T20:36:00.342Z,99519.17
2022-09-17T20:39:09.935Z,99522.00
2022-09-17T20:41:27.527Z,99525.20
2022-09-17T20:44:00.121Z,99527.55
2022-09-17T20:46:32.507Z,99529.73
2022-09-17T20:49:05.433Z,99530.25
2022-09-17T20:51:37.807Z,99530.23
2022-09-17T20:54:12.797Z,99529.73
2022-09-17T20:56:45.030Z,99529.49
2022-09-17T20:59:18.798Z,99519.71
2022-09-17T21:01:51.714Z,99514.59
2022-09-17T21:04:26.374Z,99540.09
2022-09-17T21:06:58.400Z,99541.45
2022-09-17T21:09:30.368Z,99543.48
2022-09-17T21:12:02.378Z,99535.23
2022-09-17T21:14:34.422Z,99539.03
2022-09-17T21:17:06.981Z,99543.25
2022-09-17T21:19:39.311Z,99537.95
2022-09-17T21:22:11.233Z,99535.58
2022-09-17T21:24:43.497Z,99530.16
2022-09-17T21:27:15.531Z,99535.89
2022-09-17T21:29:48.145Z,99536.13
2022-09-17T21:32:20.175Z,99530.08
2022-09-17T21:34:52.388Z,99537.15
2022-09-17T21:37:25.119Z,99529.71
2022-09-17T21:39:57.223Z,99528.23
2022-09-17T21:42:29.264Z,99523.58
2022-09-17T21:45:01.199Z,99534.23
2022-09-17T21:47:34.610Z,99530.52
2022-09-17T21:50:07.839Z,99542.05
2022-09-17T21:52:39.901Z,99544.02
2022-09-17T21:55:12.772Z,99541.34
2022-09-17T21:57:44.920Z,99540.05
2022-09-17T22:00:23.183Z,99544.08
2022-09-17T22:02:55.622Z,99548.06
2022-09-17T22:05:27.636Z,99544.56
2022-09-17T22:07:59.549Z,99545.42
2022-09-17T22:10:31.806Z,99546.80
2022-09-17T22:13:03.830Z,99528.94
2022-09-17T22:15:36.085Z,99546.10
2022-09-17T22:18:12.681Z,99545.00
2022-09-17T22:20:45.161Z,99544.86
2022-09-17T22:23:17.214Z,99539.77
2022-09-17T22:25:49.348Z,99541.33
2022-09-17T22:28:21.906Z,99543.36
2022-09-17T22:30:56.723Z,99537.63
2022-09-17T22:33:32.000Z,99526.86
2022-09-17T22:36:09.848Z,99534.80
2022-09-17T22:38:42.608Z,99528.77
2022-09-17T22:41:17.764Z,99521.04
2022-09-17T22:43:53.546Z,99521.23
2022-09-17T22:46:27.666Z,99520.03
2022-09-17T22:49:00.907Z,99505.86
2022-09-17T22:51:33.368Z,99514.92
2022-09-17T22:54:06.335Z,99511.64
2022-09-17T22:56:38.451Z,99509.45
2022-09-17T22:59:11.795Z,99494.08
2022-09-17T23:01:44.118Z,99505.89
2022-09-17T23:04:16.230Z,99501.23
2022-09-17T23:06:48.315Z,99501.20
2022-09-17T23:09:20.429Z,99502.80
2022-09-17T23:11:52.478Z,99501.81
2022-09-17T23:14:24.566Z,99499.37
2022-09-17T23:16:56.591Z,99498.07
2022-09-17T23:19:29.145Z,99491.46
2022-09-17T23:22:01.125Z,99487.48
2022-09-17T23:24:34.407Z,99490.52
2022-09-17T23:27:06.987Z,99491.80
2022-09-17T23:29:38.998Z,99496.63
2022-09-17T23:32:11.186Z,99490.48
2022-09-17T23:34:43.184Z,99479.56
2022-09-17T23:37:15.173Z,99490.05
2022-09-17T23:39:47.048Z,99491.01
2022-09-17T23:42:19.624Z,99478.08
2022-09-17T23:44:51.811Z,99489.20
2022-09-17T23:47:23.879Z,99491.86
2022-09-17T23:49:55.993Z,99475.16
2022-09-17T23:52:28.057Z,99491.23
2022-09-17T23:55:00.144Z,99493.61
2022-09-17T23:57:32.254Z,99494.05
